»·PEaware :: UAL935 KCOS-KDEN

UAL935 :: KCOS-KDEN

FLIGHT INFORMATION

Flight Status: Arrived
Operator:
United Airlines
More flights by this operator :: More flights under this callsign
Pilot: Michael S. (20314)
Aircraft: AIRBUS A321
(A321)
More flights by this aircraft type
Origin: KCOS City Of Colorado Springs Mun
United States
Destination: KDEN Denver Intl
United States
More flights between these airports :: More routes between these airports
Route: ADANE V389 LUFSE JEFEL
File this flight plan on PilotEdge
Remarks: RMK / SIMBRIEF
Altitude:
(Current/Filed)
12,000ft
Speed:
(Current/Filed)
353kts
Departed: 04-May-22 02:28 PM
Arrived: 04-May-22 02:47 PM
Distance/Time
Traveled:
63nm/0:19
Distance/Time
To Go:
Arrived

Flight Plot

Page will automatically refresh every two minutes.

Flight plan parsing failed; only flown route is shown


Map Options




Map Legend


Flown Route
Filed Route
Departure Airport
Arrival Airport
Navaid (VOR, NDB)
Fix

Horizontal Profiles

Position Reports

Time Latitude Longitude Heading Altitude Ground
Speed
04-May-22 13:59 38.797936 -104.701548 100 6196ft 0kts
04-May-22 14:00 38.797936 -104.701548 100 6196ft 0kts
04-May-22 14:01 38.797936 -104.701548 100 6196ft 0kts
04-May-22 14:02 38.797936 -104.701548 100 6196ft 0kts
04-May-22 14:03 38.797936 -104.701548 100 6196ft 0kts
04-May-22 14:04 38.797936 -104.701548 100 6196ft 0kts
04-May-22 14:05 38.797936 -104.701548 100 6196ft 0kts
04-May-22 14:06 38.797936 -104.701548 100 6196ft 0kts
04-May-22 14:07 38.797936 -104.701548 100 6196ft 0kts
04-May-22 14:08 38.797936 -104.701548 100 6196ft 0kts
04-May-22 14:09 38.797936 -104.701548 100 6196ft 0kts
04-May-22 14:10 38.797936 -104.701548 100 6196ft 0kts
04-May-22 14:11 38.797957 -104.701629 102 6196ft 0kts
04-May-22 14:12 38.798181 -104.702285 123 6196ft 2kts
04-May-22 14:13 38.798472 -104.702831 108 6196ft 0kts
04-May-22 14:14 38.798343 -104.702951 358 6196ft 0kts
04-May-22 14:15 38.798343 -104.702951 358 6196ft 0kts
04-May-22 14:16 38.798832 -104.702962 358 6196ft 6kts
04-May-22 14:17 38.801067 -104.700971 6 6196ft 13kts
04-May-22 14:18 38.803152 -104.699435 89 6196ft 10kts
04-May-22 14:19 38.803162 -104.693268 89 6196ft 20kts
04-May-22 14:20 38.803012 -104.687803 136 6196ft 10kts
04-May-22 14:21 38.797705 -104.687636 180 6196ft 21kts
04-May-22 14:22 38.792020 -104.687659 179 6196ft 19kts
04-May-22 14:23 38.786641 -104.687650 179 6196ft 19kts
04-May-22 14:24 38.781479 -104.687667 180 6196ft 18kts
04-May-22 14:25 38.779198 -104.687169 92 6196ft 0kts
04-May-22 14:26 38.779648 -104.685828 7 6196ft 15kts
04-May-22 14:27 38.810422 -104.685771 0 6704ft 180kts
04-May-22 14:28 38.863214 -104.685428 357 8611ft 203kts
04-May-22 14:29 38.910833 -104.642564 67 9637ft 265kts
04-May-22 14:30 38.942463 -104.543865 66 11028ft 327kts
04-May-22 14:31 38.973469 -104.440804 66 12015ft 308kts
04-May-22 14:32 39.025848 -104.365448 358 12018ft 294kts
04-May-22 14:33 39.104012 -104.387663 355 12021ft 292kts
04-May-22 14:34 39.185111 -104.385927 358 12039ft 292kts
04-May-22 14:35 39.260300 -104.395695 309 12061ft 283kts
04-May-22 14:36 39.319188 -104.463352 321 12034ft 285kts
04-May-22 14:37 39.383121 -104.523751 322 12029ft 285kts
04-May-22 14:38 39.447809 -104.583520 322 11031ft 285kts
04-May-22 14:39 39.511723 -104.642616 322 11020ft 268kts
04-May-22 14:40 39.579077 -104.663856 358 10262ft 256kts
04-May-22 14:41 39.648093 -104.662845 359 8914ft 235kts
04-May-22 14:42 39.707949 -104.662085 359 7798ft 204kts
04-May-22 14:43 39.758250 -104.661443 358 6781ft 151kts
04-May-22 14:44 39.800141 -104.660914 0 6052ft 150kts
04-May-22 14:45 39.840158 -104.660426 0 5443ft 109kts
04-May-22 14:46 39.856354 -104.660360 332 5443ft 5kts
04-May-22 14:47 39.856778 -104.664599 271 5443ft 14kts
04-May-22 14:48 39.856971 -104.669031 27 5443ft 3kts
04-May-22 14:49 39.857919 -104.668694 0 5443ft 0kts

Navigation Log

Ident Type
Flight plan parsing failed, navigation log unavailable